sensor_id;sensor_type;location;lat;lon;timestamp;pressure;altitude;pressure_sealevel;temperature;humidity
30516;BME280;17297;54.022;10.760;2024-01-27T00:00:23;102549.19;;;8.89;64.89
30516;BME280;17297;54.022;10.760;2024-01-27T00:02:49;102545.66;;;8.89;64.70
30516;BME280;17297;54.022;10.760;2024-01-27T00:05:14;102539.44;;;8.88;64.75
30516;BME280;17297;54.022;10.760;2024-01-27T00:07:39;102548.34;;;8.89;64.75
30516;BME280;17297;54.022;10.760;2024-01-27T00:10:06;102543.66;;;8.91;64.79
30516;BME280;17297;54.022;10.760;2024-01-27T00:12:31;102545.50;;;8.90;64.66
30516;BME280;17297;54.022;10.760;2024-01-27T00:14:57;102551.72;;;8.91;64.90
30516;BME280;17297;54.022;10.760;2024-01-27T00:17:22;102557.09;;;8.91;65.04
30516;BME280;17297;54.022;10.760;2024-01-27T00:19:53;102557.09;;;8.91;64.83
30516;BME280;17297;54.022;10.760;2024-01-27T00:22:18;102561.47;;;8.92;64.76
30516;BME280;17297;54.022;10.760;2024-01-27T00:24:45;102550.75;;;8.92;64.98
30516;BME280;17297;54.022;10.760;2024-01-27T00:27:11;102555.28;;;8.91;64.96
30516;BME280;17297;54.022;10.760;2024-01-27T00:29:36;102556.97;;;8.92;64.81
30516;BME280;17297;54.022;10.760;2024-01-27T00:32:01;102561.47;;;8.92;64.95
30516;BME280;17297;54.022;10.760;2024-01-27T00:34:27;102557.97;;;8.91;64.83
30516;BME280;17297;54.022;10.760;2024-01-27T00:36:52;102563.31;;;8.91;64.72
30516;BME280;17297;54.022;10.760;2024-01-27T00:39:17;102570.38;;;8.92;64.80
30516;BME280;17297;54.022;10.760;2024-01-27T00:41:43;102566.69;;;8.93;64.71
30516;BME280;17297;54.022;10.760;2024-01-27T00:44:10;102559.50;;;8.94;64.92
30516;BME280;17297;54.022;10.760;2024-01-27T00:46:37;102556.81;;;8.94;64.76
30516;BME280;17297;54.022;10.760;2024-01-27T00:49:03;102553.16;;;8.95;64.91
30516;BME280;17297;54.022;10.760;2024-01-27T00:51:28;102565.59;;;8.96;64.95
30516;BME280;17297;54.022;10.760;2024-01-27T00:53:54;102570.94;;;8.96;64.90
30516;BME280;17297;54.022;10.760;2024-01-27T00:56:19;102571.78;;;8.96;64.64
30516;BME280;17297;54.022;10.760;2024-01-27T00:58:44;102562.78;;;8.97;64.74
30516;BME280;17297;54.022;10.760;2024-01-27T01:01:11;102561.06;;;8.96;64.91
30516;BME280;17297;54.022;10.760;2024-01-27T01:03:36;102557.53;;;8.96;64.70
30516;BME280;17297;54.022;10.760;2024-01-27T01:06:02;102569.25;;;8.95;64.66
30516;BME280;17297;54.022;10.760;2024-01-27T01:08:28;102565.72;;;8.94;64.76
30516;BME280;17297;54.022;10.760;2024-01-27T01:10:53;102566.84;;;8.92;64.72
30516;BME280;17297;54.022;10.760;2024-01-27T01:13:19;102571.22;;;8.93;64.84
30516;BME280;17297;54.022;10.760;2024-01-27T01:15:44;102576.59;;;8.93;64.79
30516;BME280;17297;54.022;10.760;2024-01-27T01:18:09;102571.22;;;8.93;64.76
30516;BME280;17297;54.022;10.760;2024-01-27T01:20:35;102585.63;;;8.92;64.70
30516;BME280;17297;54.022;10.760;2024-01-27T01:23:00;102591.84;;;8.92;64.96
30516;BME280;17297;54.022;10.760;2024-01-27T01:25:26;102597.06;;;8.94;64.92
30516;BME280;17297;54.022;10.760;2024-01-27T01:27:51;102600.75;;;8.93;64.76
30516;BME280;17297;54.022;10.760;2024-01-27T01:30:19;102601.59;;;8.93;64.80
30516;BME280;17297;54.022;10.760;2024-01-27T01:32:44;102612.22;;;8.95;65.00
30516;BME280;17297;54.022;10.760;2024-01-27T01:35:10;102606.00;;;8.94;64.91
30516;BME280;17297;54.022;10.760;2024-01-27T01:37:35;102594.38;;;8.94;64.88
30516;BME280;17297;54.022;10.760;2024-01-27T01:40:01;102615.75;;;8.95;65.04
30516;BME280;17297;54.022;10.760;2024-01-27T01:42:26;102613.16;;;8.94;65.11
30516;BME280;17297;54.022;10.760;2024-01-27T01:44:51;102613.16;;;8.94;64.90
30516;BME280;17297;54.022;10.760;2024-01-27T01:47:17;102623.91;;;8.94;64.84
30516;BME280;17297;54.022;10.760;2024-01-27T01:49:43;102636.50;;;8.93;65.06
30516;BME280;17297;54.022;10.760;2024-01-27T01:52:09;102635.66;;;8.93;64.96
30516;BME280;17297;54.022;10.760;2024-01-27T01:54:35;102632.97;;;8.93;64.95
30516;BME280;17297;54.022;10.760;2024-01-27T01:57:02;102642.84;;;8.92;64.98
30516;BME280;17297;54.022;10.760;2024-01-27T01:59:28;102640.16;;;8.92;64.81
30516;BME280;17297;54.022;10.760;2024-01-27T02:01:53;102633.94;;;8.92;64.89
30516;BME280;17297;54.022;10.760;2024-01-27T02:04:18;102625.19;;;8.90;65.07
30516;BME280;17297;54.022;10.760;2024-01-27T02:06:44;102624.44;;;8.88;64.88
30516;BME280;17297;54.022;10.760;2024-01-27T02:09:09;102633.66;;;8.85;64.94
30516;BME280;17297;54.022;10.760;2024-01-27T02:11:35;102631.09;;;8.84;65.06
30516;BME280;17297;54.022;10.760;2024-01-27T02:14:00;102633.78;;;8.84;65.21
30516;BME280;17297;54.022;10.760;2024-01-27T02:16:25;102642.81;;;8.83;65.14
30516;BME280;17297;54.022;10.760;2024-01-27T02:18:51;102635.63;;;8.83;65.14
30516;BME280;17297;54.022;10.760;2024-01-27T02:21:16;102645.50;;;8.83;65.01
30516;BME280;17297;54.022;10.760;2024-01-27T02:23:41;102638.28;;;8.83;64.94
30516;BME280;17297;54.022;10.760;2024-01-27T02:26:07;102641.97;;;8.82;65.07
30516;BME280;17297;54.022;10.760;2024-01-27T02:28:32;102657.22;;;8.82;65.10
30516;BME280;17297;54.022;10.760;2024-01-27T02:30:58;102658.06;;;8.82;65.25
30516;BME280;17297;54.022;10.760;2024-01-27T02:33:25;102667.09;;;8.81;65.16
30516;BME280;17297;54.022;10.760;2024-01-27T02:35:50;102657.22;;;8.82;65.00
30516;BME280;17297;54.022;10.760;2024-01-27T02:38:16;102661.88;;;8.79;64.99
30516;BME280;17297;54.022;10.760;2024-01-27T02:40:41;102662.88;;;8.78;65.02
30516;BME280;17297;54.022;10.760;2024-01-27T02:43:07;102657.63;;;8.77;65.31
30516;BME280;17297;54.022;10.760;2024-01-27T02:45:32;102647.03;;;8.75;65.07
30516;BME280;17297;54.022;10.760;2024-01-27T02:47:57;102661.56;;;8.73;65.00
30516;BME280;17297;54.022;10.760;2024-01-27T02:50:24;102663.53;;;8.71;64.97
30516;BME280;17297;54.022;10.760;2024-01-27T02:52:50;102670.00;;;8.68;65.16
30516;BME280;17297;54.022;10.760;2024-01-27T02:55:15;102665.63;;;8.67;65.13
30516;BME280;17297;54.022;10.760;2024-01-27T02:57:40;102669.31;;;8.66;65.19
30516;BME280;17297;54.022;10.760;2024-01-27T03:00:06;102670.28;;;8.65;65.02
30516;BME280;17297;54.022;10.760;2024-01-27T03:02:32;102671.25;;;8.64;65.29
30516;BME280;17297;54.022;10.760;2024-01-27T03:04:58;102678.31;;;8.65;65.37
30516;BME280;17297;54.022;10.760;2024-01-27T03:07:23;102684.69;;;8.64;65.46
30516;BME280;17297;54.022;10.760;2024-01-27T03:09:48;102682.84;;;8.65;65.31
30516;BME280;17297;54.022;10.760;2024-01-27T03:12:14;102685.41;;;8.66;65.40
30516;BME280;17297;54.022;10.760;2024-01-27T03:14:41;102690.63;;;8.68;65.35
30516;BME280;17297;54.022;10.760;2024-01-27T03:17:07;102700.25;;;8.70;65.52
30516;BME280;17297;54.022;10.760;2024-01-27T03:19:32;102681.47;;;8.70;65.59
30516;BME280;17297;54.022;10.760;2024-01-27T03:21:57;102686.56;;;8.73;65.49
30516;BME280;17297;54.022;10.760;2024-01-27T03:24:23;102686.41;;;8.75;65.52
30516;BME280;17297;54.022;10.760;2024-01-27T03:26:48;102687.28;;;8.75;65.49
30516;BME280;17297;54.022;10.760;2024-01-27T03:29:13;102693.22;;;8.79;65.42
30516;BME280;17297;54.022;10.760;2024-01-27T03:31:39;102694.91;;;8.80;65.68
30516;BME280;17297;54.022;10.760;2024-01-27T03:34:05;102692.13;;;8.82;65.57
30516;BME280;17297;54.022;10.760;2024-01-27T03:36:30;102684.75;;;8.84;65.69
30516;BME280;17297;54.022;10.760;2024-01-27T03:38:59;102689.03;;;8.86;65.70
30516;BME280;17297;54.022;10.760;2024-01-27T03:41:24;102691.56;;;8.88;65.78
30516;BME280;17297;54.022;10.760;2024-01-27T03:43:50;102696.66;;;8.91;65.61
30516;BME280;17297;54.022;10.760;2024-01-27T03:46:15;102698.38;;;8.92;65.57
30516;BME280;17297;54.022;10.760;2024-01-27T03:48:41;102702.75;;;8.93;65.57
30516;BME280;17297;54.022;10.760;2024-01-27T03:51:07;102700.78;;;8.95;65.70
30516;BME280;17297;54.022;10.760;2024-01-27T03:53:32;102693.31;;;8.98;65.69
30516;BME280;17297;54.022;10.760;2024-01-27T03:55:58;102699.53;;;8.99;65.68
30516;BME280;17297;54.022;10.760;2024-01-27T03:58:25;102694.88;;;9.01;65.66
30516;BME280;17297;54.022;10.760;2024-01-27T04:00:51;102707.47;;;9.00;65.79
30516;BME280;17297;54.022;10.760;2024-01-27T04:03:16;102702.78;;;9.02;65.84
30516;BME280;17297;54.022;10.760;2024-01-27T04:05:42;102703.63;;;9.03;65.92
30516;BME280;17297;54.022;10.760;2024-01-27T04:08:07;102714.38;;;9.03;65.60
30516;BME280;17297;54.022;10.760;2024-01-27T04:10:32;102716.09;;;9.04;65.56
30516;BME280;17297;54.022;10.760;2024-01-27T04:12:58;102713.41;;;9.04;65.51
30516;BME280;17297;54.022;10.760;2024-01-27T04:15:23;102725.00;;;9.05;65.72
30516;BME280;17297;54.022;10.760;2024-01-27T04:17:48;102720.47;;;9.05;65.81
30516;BME280;17297;54.022;10.760;2024-01-27T04:20:14;102730.22;;;9.06;65.82
30516;BME280;17297;54.022;10.760;2024-01-27T04:22:39;102730.22;;;9.06;65.76
30516;BME280;17297;54.022;10.760;2024-01-27T04:25:05;102724.72;;;9.08;65.85
30516;BME280;17297;54.022;10.760;2024-01-27T04:27:36;102731.78;;;9.09;65.89
30516;BME280;17297;54.022;10.760;2024-01-27T04:30:02;102732.63;;;9.09;65.96
30516;BME280;17297;54.022;10.760;2024-01-27T04:32:27;102734.34;;;9.10;65.62
30516;BME280;17297;54.022;10.760;2024-01-27T04:34:53;102741.41;;;9.11;65.76
30516;BME280;17297;54.022;10.760;2024-01-27T04:37:18;102744.94;;;9.12;65.77
30516;BME280;17297;54.022;10.760;2024-01-27T04:39:44;102747.63;;;9.12;65.75
30516;BME280;17297;54.022;10.760;2024-01-27T04:42:09;102748.34;;;9.14;65.81
30516;BME280;17297;54.022;10.760;2024-01-27T04:44:35;102754.56;;;9.14;65.72
30516;BME280;17297;54.022;10.760;2024-01-27T04:47:00;102757.25;;;9.14;65.67
30516;BME280;17297;54.022;10.760;2024-01-27T04:49:26;102742.81;;;9.15;65.88
30516;BME280;17297;54.022;10.760;2024-01-27T04:51:51;102753.56;;;9.15;65.77
30516;BME280;17297;54.022;10.760;2024-01-27T04:54:16;102756.13;;;9.17;65.89
30516;BME280;17297;54.022;10.760;2024-01-27T04:56:42;102756.13;;;9.17;65.77
30516;BME280;17297;54.022;10.760;2024-01-27T04:59:07;102755.13;;;9.18;65.62
30516;BME280;17297;54.022;10.760;2024-01-27T05:01:32;102752.44;;;9.18;65.85
30516;BME280;17297;54.022;10.760;2024-01-27T05:03:58;102747.06;;;9.18;65.73
30516;BME280;17297;54.022;10.760;2024-01-27T05:06:24;102767.56;;;9.19;65.92
30516;BME280;17297;54.022;10.760;2024-01-27T05:08:49;102755.28;;;9.16;65.98
30516;BME280;17297;54.022;10.760;2024-01-27T05:11:16;102772.09;;;9.18;65.66
30516;BME280;17297;54.022;10.760;2024-01-27T05:13:42;102763.19;;;9.18;65.90
30516;BME280;17297;54.022;10.760;2024-01-27T05:16:08;102770.41;;;9.17;66.03
30516;BME280;17297;54.022;10.760;2024-01-27T05:18:34;102773.94;;;9.18;65.77
30516;BME280;17297;54.022;10.760;2024-01-27T05:20:59;102770.41;;;9.17;65.79
30516;BME280;17297;54.022;10.760;2024-01-27T05:23:24;102764.19;;;9.17;65.83
30516;BME280;17297;54.022;10.760;2024-01-27T05:25:51;102771.41;;;9.16;65.95
30516;BME280;17297;54.022;10.760;2024-01-27T05:28:16;102776.78;;;9.16;66.04
30516;BME280;17297;54.022;10.760;2024-01-27T05:30:41;102781.28;;;9.16;66.06
30516;BME280;17297;54.022;10.760;2024-01-27T05:33:07;102782.13;;;9.16;66.02
30516;BME280;17297;54.022;10.760;2024-01-27T05:35:33;102778.72;;;9.14;65.90
30516;BME280;17297;54.022;10.760;2024-01-27T05:37:58;102778.72;;;9.14;65.91
30516;BME280;17297;54.022;10.760;2024-01-27T05:40:23;102785.94;;;9.14;65.84
30516;BME280;17297;54.022;10.760;2024-01-27T05:42:50;102779.00;;;9.11;65.93
30516;BME280;17297;54.022;10.760;2024-01-27T05:45:15;102788.88;;;9.11;65.94
30516;BME280;17297;54.022;10.760;2024-01-27T05:47:42;102794.38;;;9.09;65.97
30516;BME280;17297;54.022;10.760;2024-01-27T05:50:07;102814.16;;;9.08;66.10
30516;BME280;17297;54.022;10.760;2024-01-27T05:52:34;102796.38;;;9.07;65.86
30516;BME280;17297;54.022;10.760;2024-01-27T05:54:59;102812.47;;;9.07;66.03
30516;BME280;17297;54.022;10.760;2024-01-27T05:57:25;102810.75;;;9.06;66.04
30516;BME280;17297;54.022;10.760;2024-01-27T05:59:50;102823.22;;;9.07;65.97
30516;BME280;17297;54.022;10.760;2024-01-27T06:02:17;102823.22;;;9.07;66.20
30516;BME280;17297;54.022;10.760;2024-01-27T06:04:43;102827.59;;;9.08;66.03
30516;BME280;17297;54.022;10.760;2024-01-27T06:07:09;102824.06;;;9.08;66.25
30516;BME280;17297;54.022;10.760;2024-01-27T06:09:34;102823.06;;;9.09;66.19
30516;BME280;17297;54.022;10.760;2024-01-27T06:12:00;102829.28;;;9.09;66.09
30516;BME280;17297;54.022;10.760;2024-01-27T06:14:28;102834.66;;;9.09;66.23
30516;BME280;17297;54.022;10.760;2024-01-27T06:16:53;102847.13;;;9.10;66.26
30516;BME280;17297;54.022;10.760;2024-01-27T06:19:19;102851.63;;;9.10;66.24
30516;BME280;17297;54.022;10.760;2024-01-27T06:21:44;102850.50;;;9.12;66.16
30516;BME280;17297;54.022;10.760;2024-01-27T06:24:09;102853.19;;;9.12;66.18
30516;BME280;17297;54.022;10.760;2024-01-27T06:26:35;102863.81;;;9.14;66.26
30516;BME280;17297;54.022;10.760;2024-01-27T06:29:00;102855.75;;;9.14;66.12
30516;BME280;17297;54.022;10.760;2024-01-27T06:31:27;102863.66;;;9.15;66.23
30516;BME280;17297;54.022;10.760;2024-01-27T06:33:53;102868.19;;;9.15;66.19
30516;BME280;17297;54.022;10.760;2024-01-27T06:36:18;102871.72;;;9.15;66.22
30516;BME280;17297;54.022;10.760;2024-01-27T06:38:44;102879.78;;;9.15;66.08
30516;BME280;17297;54.022;10.760;2024-01-27T06:41:09;102877.22;;;9.14;66.12
30516;BME280;17297;54.022;10.760;2024-01-27T06:43:35;102887.81;;;9.15;66.32
30516;BME280;17297;54.022;10.760;2024-01-27T06:46:00;102892.34;;;9.15;66.31
30516;BME280;17297;54.022;10.760;2024-01-27T06:48:25;102892.34;;;9.15;66.29
30516;BME280;17297;54.022;10.760;2024-01-27T06:50:51;102887.81;;;9.15;66.38
30516;BME280;17297;54.022;10.760;2024-01-27T06:53:18;102889.66;;;9.15;66.31
30516;BME280;17297;54.022;10.760;2024-01-27T06:55:44;102891.50;;;9.14;66.20
30516;BME280;17297;54.022;10.760;2024-01-27T06:58:09;102899.56;;;9.14;66.14
30516;BME280;17297;54.022;10.760;2024-01-27T07:00:34;102909.56;;;9.12;66.37
30516;BME280;17297;54.022;10.760;2024-01-27T07:03:00;102913.13;;;9.13;66.08
30516;BME280;17297;54.022;10.760;2024-01-27T07:05:25;102923.00;;;9.12;66.15
30516;BME280;17297;54.022;10.760;2024-01-27T07:07:51;102923.13;;;9.11;66.15
30516;BME280;17297;54.022;10.760;2024-01-27T07:10:16;102924.00;;;9.11;66.32
30516;BME280;17297;54.022;10.760;2024-01-27T07:12:41;102922.28;;;9.10;66.37
30516;BME280;17297;54.022;10.760;2024-01-27T07:15:09;102926.81;;;9.10;66.29
30516;BME280;17297;54.022;10.760;2024-01-27T07:17:35;102933.88;;;9.11;66.44
30516;BME280;17297;54.022;10.760;2024-01-27T07:20:00;102932.03;;;9.11;66.46
30516;BME280;17297;54.022;10.760;2024-01-27T07:22:26;102931.06;;;9.12;66.35
30516;BME280;17297;54.022;10.760;2024-01-27T07:24:51;102932.78;;;9.13;66.29
30516;BME280;17297;54.022;10.760;2024-01-27T07:27:17;102938.84;;;9.15;66.35
30516;BME280;17297;54.022;10.760;2024-01-27T07:29:43;102946.91;;;9.15;66.41
30516;BME280;17297;54.022;10.760;2024-01-27T07:32:08;102948.63;;;9.16;66.56
30516;BME280;17297;54.022;10.760;2024-01-27T07:34:42;102952.00;;;9.18;66.56
30516;BME280;17297;54.022;10.760;2024-01-27T07:37:08;102954.59;;;9.20;66.55
30516;BME280;17297;54.022;10.760;2024-01-27T07:39:33;102953.59;;;9.21;66.61
30516;BME280;17297;54.022;10.760;2024-01-27T07:41:59;102956.00;;;9.24;66.64
30516;BME280;17297;54.022;10.760;2024-01-27T07:44:24;102953.91;;;9.28;66.50
30516;BME280;17297;54.022;10.760;2024-01-27T07:46:49;102954.66;;;9.30;66.42
30516;BME280;17297;54.022;10.760;2024-01-27T07:49:15;102963.44;;;9.32;66.66
30516;BME280;17297;54.022;10.760;2024-01-27T07:51:40;102970.25;;;9.36;66.49
30516;BME280;17297;54.022;10.760;2024-01-27T07:54:05;102971.09;;;9.36;66.52
30516;BME280;17297;54.022;10.760;2024-01-27T07:56:31;102970.09;;;9.37;66.40
30516;BME280;17297;54.022;10.760;2024-01-27T07:58:56;102960.22;;;9.38;66.50
30516;BME280;17297;54.022;10.760;2024-01-27T08:01:21;102963.75;;;9.38;66.26
30516;BME280;17297;54.022;10.760;2024-01-27T08:03:47;102965.47;;;9.39;66.63
30516;BME280;17297;54.022;10.760;2024-01-27T08:06:26;102984.16;;;9.41;66.46
30516;BME280;17297;54.022;10.760;2024-01-27T08:08:52;102981.31;;;9.42;66.43
30516;BME280;17297;54.022;10.760;2024-01-27T08:11:17;102977.63;;;9.43;66.54
30516;BME280;17297;54.022;10.760;2024-01-27T08:13:43;102977.63;;;9.43;66.45
30516;BME280;17297;54.022;10.760;2024-01-27T08:16:08;102981.06;;;9.45;66.57
30516;BME280;17297;54.022;10.760;2024-01-27T08:18:38;102983.75;;;9.45;66.60
30516;BME280;17297;54.022;10.760;2024-01-27T08:21:05;102989.00;;;9.47;66.49
30516;BME280;17297;54.022;10.760;2024-01-27T08:23:30;102988.84;;;9.48;66.58
30516;BME280;17297;54.022;10.760;2024-01-27T08:25:56;102995.06;;;9.49;66.51
30516;BME280;17297;54.022;10.760;2024-01-27T08:28:22;103000.31;;;9.51;66.53
30516;BME280;17297;54.022;10.760;2024-01-27T08:30:47;102995.81;;;9.51;66.50
30516;BME280;17297;54.022;10.760;2024-01-27T08:33:12;102993.22;;;9.49;66.47
30516;BME280;17297;54.022;10.760;2024-01-27T08:35:39;102997.63;;;9.51;66.59
30516;BME280;17297;54.022;10.760;2024-01-27T08:38:05;103002.13;;;9.50;66.61
30516;BME280;17297;54.022;10.760;2024-01-27T08:40:31;103007.50;;;9.50;66.40
30516;BME280;17297;54.022;10.760;2024-01-27T08:42:57;103013.75;;;9.51;66.56
30516;BME280;17297;54.022;10.760;2024-01-27T08:45:22;103005.69;;;9.51;66.42
30516;BME280;17297;54.022;10.760;2024-01-27T08:47:48;103012.88;;;9.50;66.50
30516;BME280;17297;54.022;10.760;2024-01-27T08:50:13;103016.56;;;9.49;66.59
30516;BME280;17297;54.022;10.760;2024-01-27T08:52:39;103000.44;;;9.49;66.46
30516;BME280;17297;54.022;10.760;2024-01-27T08:55:05;103014.72;;;9.49;66.50
30516;BME280;17297;54.022;10.760;2024-01-27T08:57:32;103018.41;;;9.48;66.47
30516;BME280;17297;54.022;10.760;2024-01-27T08:59:57;103029.28;;;9.47;66.55
30516;BME280;17297;54.022;10.760;2024-01-27T09:02:22;103024.88;;;9.46;66.41
30516;BME280;17297;54.022;10.760;2024-01-27T09:04:48;103025.88;;;9.45;66.52
30516;BME280;17297;54.022;10.760;2024-01-27T09:07:13;103026.97;;;9.42;66.27
30516;BME280;17297;54.022;10.760;2024-01-27T09:09:39;103031.50;;;9.42;66.50
30516;BME280;17297;54.022;10.760;2024-01-27T09:12:04;103028.09;;;9.40;66.34
30516;BME280;17297;54.022;10.760;2024-01-27T09:14:30;103032.63;;;9.39;66.30
30516;BME280;17297;54.022;10.760;2024-01-27T09:16:55;103033.59;;;9.38;66.39
30516;BME280;17297;54.022;10.760;2024-01-27T09:19:21;103034.56;;;9.37;66.33
30516;BME280;17297;54.022;10.760;2024-01-27T09:21:47;103023.81;;;9.37;66.33
30516;BME280;17297;54.022;10.760;2024-01-27T09:24:12;103024.69;;;9.38;66.58
30516;BME280;17297;54.022;10.760;2024-01-27T09:26:37;103034.47;;;9.39;66.50
30516;BME280;17297;54.022;10.760;2024-01-27T09:29:03;103038.97;;;9.38;66.60
30516;BME280;17297;54.022;10.760;2024-01-27T09:31:28;103039.81;;;9.39;66.41
30516;BME280;17297;54.022;10.760;2024-01-27T09:33:53;103031.78;;;9.39;66.39
30516;BME280;17297;54.022;10.760;2024-01-27T09:36:19;103042.38;;;9.40;66.48
30516;BME280;17297;54.022;10.760;2024-01-27T09:38:48;103043.38;;;9.39;66.50
30516;BME280;17297;54.022;10.760;2024-01-27T09:41:13;103045.94;;;9.41;66.36
30516;BME280;17297;54.022;10.760;2024-01-27T09:43:43;103058.22;;;9.43;66.68
30516;BME280;17297;54.022;10.760;2024-01-27T09:46:15;103062.38;;;9.47;66.75
30516;BME280;17297;54.022;10.760;2024-01-27T09:48:40;103071.03;;;9.51;66.45
30516;BME280;17297;54.022;10.760;2024-01-27T09:51:07;103070.03;;;9.52;66.57
30516;BME280;17297;54.022;10.760;2024-01-27T09:53:33;103074.16;;;9.56;66.58
30516;BME280;17297;54.022;10.760;2024-01-27T09:56:00;103079.28;;;9.59;66.54
30516;BME280;17297;54.022;10.760;2024-01-27T09:58:28;103084.53;;;9.61;66.52
30516;BME280;17297;54.022;10.760;2024-01-27T10:00:59;103081.72;;;9.62;66.53
30516;BME280;17297;54.022;10.760;2024-01-27T10:03:25;103085.28;;;9.63;66.63
30516;BME280;17297;54.022;10.760;2024-01-27T10:05:53;103093.19;;;9.64;66.47
30516;BME280;17297;54.022;10.760;2024-01-27T10:08:19;103086.81;;;9.65;66.66
30516;BME280;17297;54.022;10.760;2024-01-27T10:10:45;103077.78;;;9.66;66.44
30516;BME280;17297;54.022;10.760;2024-01-27T10:13:14;103094.78;;;9.67;66.66
30516;BME280;17297;54.022;10.760;2024-01-27T10:15:41;103093.94;;;9.66;66.40
30516;BME280;17297;54.022;10.760;2024-01-27T10:18:07;103088.56;;;9.66;66.53
30516;BME280;17297;54.022;10.760;2024-01-27T10:20:33;103092.94;;;9.67;66.36
30516;BME280;17297;54.022;10.760;2024-01-27T10:23:09;103102.56;;;9.70;66.59
30516;BME280;17297;54.022;10.760;2024-01-27T10:25:37;103113.19;;;9.71;66.38
30516;BME280;17297;54.022;10.760;2024-01-27T10:28:04;103117.59;;;9.73;66.36
30516;BME280;17297;54.022;10.760;2024-01-27T10:30:30;103110.22;;;9.75;66.35
30516;BME280;17297;54.022;10.760;2024-01-27T10:32:56;103125.16;;;9.79;66.58
30516;BME280;17297;54.022;10.760;2024-01-27T10:35:22;103116.66;;;9.83;66.56
30516;BME280;17297;54.022;10.760;2024-01-27T10:37:51;103117.41;;;9.85;66.42
30516;BME280;17297;54.022;10.760;2024-01-27T10:40:17;103113.59;;;9.88;66.35
30516;BME280;17297;54.022;10.760;2024-01-27T10:42:44;103115.16;;;9.90;66.46
30516;BME280;17297;54.022;10.760;2024-01-27T10:45:11;103110.50;;;9.92;66.48
30516;BME280;17297;54.022;10.760;2024-01-27T10:47:38;103112.09;;;9.95;66.33
30516;BME280;17297;54.022;10.760;2024-01-27T10:50:08;103103.88;;;9.97;66.43
30516;BME280;17297;54.022;10.760;2024-01-27T10:52:37;103106.44;;;9.98;66.33
30516;BME280;17297;54.022;10.760;2024-01-27T10:55:04;103119.75;;;10.00;66.36
30516;BME280;17297;54.022;10.760;2024-01-27T10:57:35;103126.00;;;10.00;66.22
30516;BME280;17297;54.022;10.760;2024-01-27T11:00:03;103122.31;;;10.01;66.10
30516;BME280;17297;54.022;10.760;2024-01-27T11:02:33;103120.47;;;10.02;66.22
30516;BME280;17297;54.022;10.760;2024-01-27T11:05:03;103107.28;;;9.99;66.14
30516;BME280;17297;54.022;10.760;2024-01-27T11:07:33;103117.22;;;9.98;66.02
30516;BME280;17297;54.022;10.760;2024-01-27T11:10:01;103120.63;;;10.00;66.06
30516;BME280;17297;54.022;10.760;2024-01-27T11:12:26;103108.88;;;10.01;65.99
30516;BME280;17297;54.022;10.760;2024-01-27T11:14:53;103114.00;;;10.04;65.99
30516;BME280;17297;54.022;10.760;2024-01-27T11:17:19;103103.09;;;10.06;66.09
30516;BME280;17297;54.022;10.760;2024-01-27T11:19:45;103108.34;;;10.07;66.00
30516;BME280;17297;54.022;10.760;2024-01-27T11:22:37;103106.41;;;10.09;66.11
30516;BME280;17297;54.022;10.760;2024-01-27T11:27:43;103107.09;;;10.11;65.91
30516;BME280;17297;54.022;10.760;2024-01-27T11:30:30;103108.94;;;10.11;65.93
30516;BME280;17297;54.022;10.760;2024-01-27T11:33:01;103111.63;;;10.11;66.02
30516;BME280;17297;54.022;10.760;2024-01-27T11:35:27;103102.28;;;10.15;65.70
30516;BME280;17297;54.022;10.760;2024-01-27T11:37:54;103108.41;;;10.17;65.85
30516;BME280;17297;54.022;10.760;2024-01-27T11:40:19;103104.59;;;10.20;66.09
30516;BME280;17297;54.022;10.760;2024-01-27T11:42:58;103109.72;;;10.23;65.84
30516;BME280;17297;54.022;10.760;2024-01-27T11:45:24;103114.09;;;10.24;65.79
30516;BME280;17297;54.022;10.760;2024-01-27T11:47:50;103114.09;;;10.24;65.76
30516;BME280;17297;54.022;10.760;2024-01-27T11:50:19;103123.88;;;10.25;65.77
30516;BME280;17297;54.022;10.760;2024-01-27T11:52:46;103127.44;;;10.25;65.66
30516;BME280;17297;54.022;10.760;2024-01-27T11:55:11;103130.97;;;10.26;65.86
30516;BME280;17297;54.022;10.760;2024-01-27T11:57:37;103135.38;;;10.27;65.62
30516;BME280;17297;54.022;10.760;2024-01-27T12:00:02;103133.28;;;10.30;65.76
30516;BME280;17297;54.022;10.760;2024-01-27T12:02:32;103144.03;;;10.30;65.59
30516;BME280;17297;54.022;10.760;2024-01-27T12:04:57;103152.97;;;10.31;65.59
30516;BME280;17297;54.022;10.760;2024-01-27T12:07:23;103153.84;;;10.31;65.74
30516;BME280;17297;54.022;10.760;2024-01-27T12:09:49;103158.34;;;10.31;65.58
30516;BME280;17297;54.022;10.760;2024-01-27T12:12:15;103165.56;;;10.30;65.68
30516;BME280;17297;54.022;10.760;2024-01-27T12:14:41;103169.09;;;10.31;65.47
30516;BME280;17297;54.022;10.760;2024-01-27T12:17:10;103171.53;;;10.34;65.54
30516;BME280;17297;54.022;10.760;2024-01-27T12:19:36;103169.56;;;10.36;65.68
30516;BME280;17297;54.022;10.760;2024-01-27T12:22:03;103175.94;;;10.35;65.36
30516;BME280;17297;54.022;10.760;2024-01-27T12:24:28;103180.34;;;10.36;65.46
30516;BME280;17297;54.022;10.760;2024-01-27T12:26:55;103168.56;;;10.37;65.42
30516;BME280;17297;54.022;10.760;2024-01-27T12:29:22;103185.44;;;10.39;65.51
30516;BME280;17297;54.022;10.760;2024-01-27T12:31:47;103173.00;;;10.38;65.35
30516;BME280;17297;54.022;10.760;2024-01-27T12:34:13;103168.56;;;10.37;65.52
30516;BME280;17297;54.022;10.760;2024-01-27T12:36:42;103166.88;;;10.36;65.38
30516;BME280;17297;54.022;10.760;2024-01-27T12:39:10;103165.88;;;10.37;65.26
30516;BME280;17297;54.022;10.760;2024-01-27T12:41:35;103163.91;;;10.39;65.45
30516;BME280;17297;54.022;10.760;2024-01-27T12:44:01;103158.69;;;10.37;65.43